createdAt,value
2016-06-14T00:00:07.553Z,995.96
2016-06-14T00:01:07.557Z,995.99
2016-06-14T00:02:07.576Z,996
2016-06-14T00:03:07.562Z,995.96
2016-06-14T00:04:07.550Z,995.96
2016-06-14T00:05:07.552Z,995.99
2016-06-14T00:06:07.541Z,996
2016-06-14T00:07:07.544Z,995.97
2016-06-14T00:08:07.547Z,995.97
2016-06-14T00:09:07.550Z,995.95
2016-06-14T00:10:07.537Z,995.96
2016-06-14T00:11:07.540Z,995.99
2016-06-14T00:12:07.544Z,995.95
2016-06-14T00:13:07.530Z,995.97
2016-06-14T00:14:07.533Z,995.95
2016-06-14T00:15:07.709Z,995.97
2016-06-14T00:16:07.524Z,995.96
2016-06-14T00:17:07.528Z,995.91
2016-06-14T00:18:07.531Z,995.96
2016-06-14T00:19:07.518Z,995.95
2016-06-14T00:20:07.521Z,995.95
2016-06-14T00:21:07.524Z,995.94
2016-06-14T00:22:07.512Z,995.95
2016-06-14T00:23:07.515Z,995.98
2016-06-14T00:24:07.518Z,995.98
2016-06-14T00:25:07.521Z,995.99
2016-06-14T00:26:07.508Z,995.98
2016-06-14T00:27:07.511Z,995.97
2016-06-14T00:28:07.514Z,995.96
2016-06-14T00:29:08.205Z,995.99
2016-06-14T00:30:07.504Z,995.98
2016-06-14T00:31:07.507Z,995.98
2016-06-14T00:32:08.761Z,995.96
2016-06-14T00:33:07.499Z,996.02
2016-06-14T00:34:07.501Z,995.96
2016-06-14T00:35:07.505Z,995.98
2016-06-14T00:36:07.492Z,995.98
2016-06-14T00:37:07.495Z,996
2016-06-14T00:38:07.498Z,995.96
2016-06-14T00:39:07.485Z,995.95
2016-06-14T00:40:07.489Z,995.95
2016-06-14T00:41:07.491Z,995.96
2016-06-14T00:42:07.682Z,995.97
2016-06-14T00:44:07.486Z,996.01
2016-06-14T00:45:07.472Z,995.99
2016-06-14T00:46:07.476Z,996
2016-06-14T00:47:07.478Z,996
2016-06-14T00:48:07.467Z,995.99
2016-06-14T00:49:09.048Z,996
2016-06-14T00:50:08.691Z,996.02
2016-06-14T00:51:07.460Z,996.01
2016-06-14T00:52:07.463Z,996.02
2016-06-14T00:53:07.482Z,996.01
2016-06-14T00:54:07.470Z,996.01
2016-06-14T00:55:07.456Z,996.03
2016-06-14T00:56:07.460Z,995.99
2016-06-14T00:57:07.463Z,996.01
2016-06-14T00:58:07.450Z,996.03
2016-06-14T00:59:07.469Z,996
2016-06-14T01:00:08.894Z,996
2016-06-14T01:01:07.991Z,995.95
2016-06-14T01:02:07.447Z,995.99
2016-06-14T01:03:07.450Z,995.96
2016-06-14T01:04:07.437Z,995.99
2016-06-14T01:05:07.441Z,995.98
2016-06-14T01:06:07.443Z,995.93
2016-06-14T01:07:07.447Z,995.96
2016-06-14T01:08:07.434Z,995.96
2016-06-14T01:09:07.437Z,995.95
2016-06-14T01:10:07.441Z,995.91
2016-06-14T01:11:07.428Z,995.93
2016-06-14T01:12:07.430Z,995.9
2016-06-14T01:13:07.434Z,995.91
2016-06-14T01:14:07.422Z,995.94
2016-06-14T01:15:07.425Z,995.9
2016-06-14T01:16:07.427Z,995.91
2016-06-14T01:17:07.431Z,995.9
2016-06-14T01:18:07.435Z,995.91
2016-06-14T01:19:07.421Z,995.86
2016-06-14T01:20:07.424Z,995.91
2016-06-14T01:21:07.411Z,995.91
2016-06-14T01:22:07.415Z,995.89
2016-06-14T01:23:07.417Z,995.89
2016-06-14T01:24:07.405Z,995.88
2016-06-14T01:25:07.409Z,995.89
2016-06-14T01:26:07.412Z,995.82
2016-06-14T01:27:07.399Z,995.86
2016-06-14T01:28:07.402Z,995.79
2016-06-14T01:29:07.405Z,995.82
2016-06-14T01:30:07.674Z,995.82
2016-06-14T01:31:07.395Z,995.79
2016-06-14T01:32:07.398Z,995.77
2016-06-14T01:33:07.401Z,995.73
2016-06-14T01:34:07.389Z,995.79
2016-06-14T01:35:07.392Z,995.74
2016-06-14T01:36:07.396Z,995.77
2016-06-14T01:37:07.382Z,995.72
2016-06-14T01:38:07.385Z,995.74
2016-06-14T01:39:07.389Z,995.74
2016-06-14T01:40:07.377Z,995.73
2016-06-14T01:41:07.394Z,995.74
2016-06-14T01:42:07.383Z,995.72
2016-06-14T01:43:07.386Z,995.73
2016-06-14T01:44:07.373Z,995.71
2016-06-14T01:45:07.376Z,995.69
2016-06-14T01:46:07.379Z,995.72
2016-06-14T01:47:07.383Z,995.7
2016-06-14T01:48:07.369Z,995.73
2016-06-14T01:49:07.372Z,995.71
2016-06-14T01:50:07.391Z,995.75
2016-06-14T01:51:07.364Z,995.74
2016-06-14T01:52:07.709Z,995.77
2016-06-14T01:53:07.370Z,995.7
2016-06-14T01:54:07.356Z,995.74
2016-06-14T01:55:07.360Z,995.72
2016-06-14T01:56:07.363Z,995.73
2016-06-14T01:57:07.350Z,995.71
2016-06-14T01:58:07.353Z,995.73
2016-06-14T01:59:07.356Z,995.74
2016-06-14T02:00:08.094Z,995.68
2016-06-14T02:01:07.347Z,995.72
2016-06-14T02:02:07.803Z,995.71
2016-06-14T02:03:07.353Z,995.72
2016-06-14T02:04:07.341Z,995.7
2016-06-14T02:05:07.343Z,995.68
2016-06-14T02:06:07.347Z,995.68
2016-06-14T02:08:07.338Z,995.67
2016-06-14T02:09:08.841Z,995.68
2016-06-14T02:10:08.609Z,995.71
2016-06-14T02:11:07.331Z,995.69
2016-06-14T02:12:07.334Z,995.66
2016-06-14T02:13:07.337Z,995.65
2016-06-14T02:14:07.325Z,995.68
2016-06-14T02:15:07.530Z,995.66
2016-06-14T02:16:07.330Z,995.68
2016-06-14T02:17:07.318Z,995.66
2016-06-14T02:18:07.322Z,995.64
2016-06-14T02:19:07.324Z,995.63
2016-06-14T02:20:07.327Z,995.61
2016-06-14T02:21:07.315Z,995.6
2016-06-14T02:22:07.317Z,995.63
2016-06-14T02:23:07.462Z,995.57
2016-06-14T02:24:07.324Z,995.58
2016-06-14T02:25:07.311Z,995.53
2016-06-14T02:26:07.314Z,995.56
2016-06-14T02:27:07.302Z,995.56
2016-06-14T02:28:07.305Z,995.56
2016-06-14T02:29:07.308Z,995.57
2016-06-14T02:30:07.311Z,995.56
2016-06-14T02:31:07.298Z,995.55
2016-06-14T02:32:07.301Z,995.55
2016-06-14T02:33:07.304Z,995.55
2016-06-14T02:34:07.293Z,995.55
2016-06-14T02:35:07.296Z,995.55
2016-06-14T02:36:07.298Z,995.54
2016-06-14T02:37:07.286Z,995.55
2016-06-14T02:38:07.289Z,995.53
2016-06-14T02:39:07.292Z,995.56
2016-06-14T02:40:07.295Z,995.53
2016-06-14T02:41:07.282Z,995.54
2016-06-14T02:42:07.286Z,995.53
2016-06-14T02:43:07.288Z,995.51
2016-06-14T02:44:07.277Z,995.51
2016-06-14T02:45:07.280Z,995.48
2016-06-14T02:46:07.282Z,995.49
2016-06-14T02:47:07.286Z,995.51
2016-06-14T02:48:07.273Z,995.52
2016-06-14T02:49:07.276Z,995.5
2016-06-14T02:50:07.279Z,995.54
2016-06-14T02:51:07.266Z,995.48
2016-06-14T02:52:07.269Z,995.51
2016-06-14T02:53:07.272Z,995.56
2016-06-14T02:54:07.260Z,995.52
2016-06-14T02:55:07.263Z,995.53
2016-06-14T02:56:07.267Z,995.5
2016-06-14T02:57:07.269Z,995.52
2016-06-14T02:58:07.256Z,995.53
2016-06-14T02:59:07.323Z,995.54
2016-06-14T03:00:07.309Z,995.53
2016-06-14T03:01:07.329Z,995.51
2016-06-14T03:02:07.300Z,995.48
2016-06-14T03:03:07.257Z,995.5
2016-06-14T03:04:07.244Z,995.46
2016-06-14T03:05:07.263Z,995.47
2016-06-14T03:06:07.250Z,995.48
2016-06-14T03:07:07.254Z,995.43
2016-06-14T03:08:07.240Z,995.44
2016-06-14T03:09:07.243Z,995.44
2016-06-14T03:10:08.293Z,995.42
2016-06-14T03:11:07.640Z,995.46
2016-06-14T03:12:07.238Z,995.43
2016-06-14T03:13:07.241Z,995.44
2016-06-14T03:14:07.243Z,995.42
2016-06-14T03:15:07.230Z,995.44
2016-06-14T03:16:07.234Z,995.42
2016-06-14T03:17:07.237Z,995.43
2016-06-14T03:18:07.224Z,995.44
2016-06-14T03:19:07.227Z,995.39
2016-06-14T03:20:07.230Z,995.44
2016-06-14T03:21:07.233Z,995.49
2016-06-14T03:22:07.221Z,995.48
2016-06-14T03:23:07.224Z,995.48
2016-06-14T03:24:07.228Z,995.49
2016-06-14T03:25:07.214Z,995.51
2016-06-14T03:26:07.217Z,995.54
2016-06-14T03:27:07.221Z,995.53
2016-06-14T03:28:07.209Z,995.55
2016-06-14T03:29:07.211Z,995.5
2016-06-14T03:30:07.215Z,995.5
2016-06-14T03:31:07.420Z,995.49
2016-06-14T03:32:07.205Z,995.48
2016-06-14T03:33:07.208Z,995.53
2016-06-14T03:34:07.211Z,995.52
2016-06-14T03:35:07.198Z,995.51
2016-06-14T03:36:07.295Z,995.54
2016-06-14T03:37:07.204Z,995.55
2016-06-14T03:38:07.208Z,995.55
2016-06-14T03:39:07.196Z,995.56
2016-06-14T03:40:07.464Z,995.55
2016-06-14T03:41:07.201Z,995.52
2016-06-14T03:42:07.188Z,995.57
2016-06-14T03:43:07.192Z,995.57
2016-06-14T03:44:07.195Z,995.56
2016-06-14T03:45:07.323Z,995.57
2016-06-14T03:46:07.185Z,995.52
2016-06-14T03:47:07.188Z,995.6
2016-06-14T03:48:07.191Z,995.59
2016-06-14T03:49:07.179Z,995.6
2016-06-14T03:50:07.197Z,995.61
2016-06-14T03:51:07.185Z,995.62
2016-06-14T03:52:07.188Z,995.63
2016-06-14T03:53:07.191Z,995.6
2016-06-14T03:54:07.179Z,995.62
2016-06-14T03:55:07.182Z,995.65
2016-06-14T03:56:07.169Z,995.61
2016-06-14T03:57:07.173Z,995.62
2016-06-14T03:58:07.176Z,995.63
2016-06-14T03:59:07.179Z,995.63
2016-06-14T04:00:07.166Z,995.65
2016-06-14T04:01:07.169Z,995.66
2016-06-14T04:02:07.172Z,995.68
2016-06-14T04:03:07.175Z,995.66
2016-06-14T04:04:07.163Z,995.69
2016-06-14T04:05:07.165Z,995.69
2016-06-14T04:06:07.168Z,995.67
2016-06-14T04:07:07.156Z,995.68
2016-06-14T04:08:07.160Z,995.69
2016-06-14T04:09:07.163Z,995.7
2016-06-14T04:10:07.165Z,995.68
2016-06-14T04:11:07.153Z,995.67
2016-06-14T04:12:07.156Z,995.65
2016-06-14T04:13:07.159Z,995.68
2016-06-14T04:14:07.146Z,995.71
2016-06-14T04:15:07.149Z,995.7
2016-06-14T04:16:07.340Z,995.7
2016-06-14T04:17:07.155Z,995.7
2016-06-14T04:18:07.143Z,995.71
2016-06-14T04:19:07.147Z,995.72
2016-06-14T04:20:07.150Z,995.7
2016-06-14T04:21:07.152Z,995.71
2016-06-14T04:22:07.140Z,995.74
2016-06-14T04:23:07.142Z,995.7
2016-06-14T04:24:07.146Z,995.7
2016-06-14T04:25:07.149Z,995.7
2016-06-14T04:26:07.137Z,995.71
2016-06-14T04:27:07.155Z,995.68
2016-06-14T04:28:07.894Z,995.68
2016-06-14T04:29:07.146Z,995.69
2016-06-14T04:30:07.149Z,995.67
2016-06-14T04:31:07.137Z,995.72
2016-06-14T04:32:07.343Z,995.71
2016-06-14T04:33:07.142Z,995.71
2016-06-14T04:34:07.130Z,995.67
2016-06-14T04:35:07.133Z,995.7
2016-06-14T04:36:07.135Z,995.72
2016-06-14T04:37:08.029Z,995.75
2016-06-14T04:38:07.127Z,995.77
2016-06-14T04:39:07.130Z,995.75
2016-06-14T04:40:07.133Z,995.81
2016-06-14T04:41:07.573Z,995.8
2016-06-14T04:42:07.123Z,995.81
2016-06-14T04:43:07.423Z,995.82
2016-06-14T04:44:07.129Z,995.79
2016-06-14T04:45:07.132Z,995.76
2016-06-14T04:46:07.119Z,995.79
2016-06-14T04:47:07.123Z,995.75
2016-06-14T04:48:07.123Z,995.81
2016-06-14T04:49:07.126Z,995.8
2016-06-14T04:50:07.113Z,995.81
2016-06-14T04:51:07.448Z,995.83
2016-06-14T04:52:07.120Z,995.81
2016-06-14T04:53:07.123Z,995.8
2016-06-14T04:54:07.957Z,995.88
2016-06-14T04:55:07.113Z,995.9
2016-06-14T04:56:07.960Z,995.89
2016-06-14T04:57:07.119Z,995.92
2016-06-14T04:58:07.123Z,995.86
2016-06-14T04:59:07.125Z,995.89
2016-06-14T05:00:07.113Z,995.93
2016-06-14T05:01:07.116Z,995.89
2016-06-14T05:02:07.120Z,995.93
2016-06-14T05:03:07.123Z,995.93
2016-06-14T05:04:07.126Z,995.92
2016-06-14T05:05:07.113Z,995.86
2016-06-14T05:06:07.116Z,995.9
2016-06-14T05:07:07.119Z,995.9
2016-06-14T05:08:07.122Z,995.89
2016-06-14T05:09:07.125Z,995.91
2016-06-14T05:10:07.128Z,995.87
2016-06-14T05:11:07.115Z,995.88
2016-06-14T05:12:07.119Z,995.98
2016-06-14T05:13:07.122Z,995.96
2016-06-14T05:14:07.125Z,995.94
2016-06-14T05:15:07.128Z,995.93
2016-06-14T05:16:07.131Z,995.88
2016-06-14T05:17:07.134Z,995.93
2016-06-14T05:18:07.122Z,995.91
2016-06-14T05:19:07.125Z,995.9
2016-06-14T05:20:07.128Z,995.93
2016-06-14T05:21:07.131Z,995.94
2016-06-14T05:22:07.134Z,995.93
2016-06-14T05:23:07.137Z,995.85
2016-06-14T05:24:07.140Z,995.92
2016-06-14T05:25:07.128Z,995.9
2016-06-14T05:26:07.131Z,995.91
2016-06-14T05:27:07.134Z,995.87
2016-06-14T05:28:07.136Z,995.84
2016-06-14T05:29:07.140Z,995.83
2016-06-14T05:30:07.143Z,995.84
2016-06-14T05:31:07.130Z,995.83
2016-06-14T05:32:07.132Z,995.85
2016-06-14T05:33:07.136Z,995.82
2016-06-14T05:34:07.139Z,995.86
2016-06-14T05:35:07.142Z,995.84
2016-06-14T05:36:07.145Z,995.81
2016-06-14T05:37:07.134Z,995.87
2016-06-14T05:38:07.136Z,995.85
2016-06-14T05:39:07.140Z,995.91
2016-06-14T05:40:07.142Z,995.89
2016-06-14T05:41:07.145Z,995.91
2016-06-14T05:42:07.149Z,995.92
2016-06-14T05:43:07.152Z,995.96
2016-06-14T05:44:07.155Z,996.02
2016-06-14T05:45:07.142Z,995.99
2016-06-14T05:46:07.286Z,995.97
2016-06-14T05:47:07.148Z,995.97
2016-06-14T05:48:07.151Z,995.99
2016-06-14T05:49:07.139Z,996.02
2016-06-14T05:50:07.143Z,996.07
2016-06-14T05:51:07.145Z,996.1
2016-06-14T05:52:07.149Z,996.14
2016-06-14T05:53:07.152Z,996.08
2016-06-14T05:54:07.155Z,996.12
2016-06-14T05:55:07.141Z,996.11
2016-06-14T05:56:07.145Z,996.18
2016-06-14T05:57:07.648Z,996.16
2016-06-14T05:58:07.151Z,996.19
2016-06-14T05:59:07.170Z,996.17
2016-06-14T06:00:07.141Z,996.15
2016-06-14T06:01:07.254Z,996.11
2016-06-14T06:02:07.147Z,996.1
2016-06-14T06:03:07.525Z,996.13
2016-06-14T06:04:07.389Z,996.15
2016-06-14T06:05:07.157Z,996.1
2016-06-14T06:06:07.878Z,996.05
2016-06-14T06:07:07.148Z,996.11
2016-06-14T06:08:07.151Z,996.09
2016-06-14T06:09:07.154Z,996.12
2016-06-14T06:10:07.157Z,996.08
2016-06-14T06:11:07.160Z,996.07
2016-06-14T06:12:07.163Z,996.11
2016-06-14T06:13:07.150Z,996.16
2016-06-14T06:14:07.950Z,996.17
2016-06-14T06:15:07.406Z,996.23
2016-06-14T06:16:07.159Z,996.28
2016-06-14T06:17:07.163Z,996.29
2016-06-14T06:18:07.165Z,996.32
2016-06-14T06:19:07.169Z,996.27
2016-06-14T06:20:07.155Z,996.34
2016-06-14T06:21:07.158Z,996.32
2016-06-14T06:22:07.162Z,996.31
2016-06-14T06:23:07.165Z,996.32
2016-06-14T06:24:07.168Z,996.3
2016-06-14T06:25:07.171Z,996.31
2016-06-14T06:26:07.174Z,996.26
2016-06-14T06:27:07.177Z,996.32
2016-06-14T06:28:07.180Z,996.27
2016-06-14T06:29:07.169Z,996.27
2016-06-14T06:30:07.171Z,996.29
2016-06-14T06:31:07.175Z,996.28
2016-06-14T06:32:07.178Z,996.29
2016-06-14T06:33:07.181Z,996.27
2016-06-14T06:34:07.184Z,996.29
2016-06-14T06:35:07.187Z,996.31
2016-06-14T06:36:07.190Z,996.28
2016-06-14T06:37:07.193Z,996.34
2016-06-14T06:38:07.196Z,996.37
2016-06-14T06:39:07.183Z,996.39
2016-06-14T06:40:07.186Z,996.43
2016-06-14T06:41:07.189Z,996.47
2016-06-14T06:42:07.192Z,996.4
2016-06-14T06:43:07.196Z,996.34
2016-06-14T06:44:07.198Z,996.32
2016-06-14T06:45:07.201Z,996.32
2016-06-14T06:46:07.761Z,996.38
2016-06-14T06:47:07.273Z,996.32
2016-06-14T06:48:07.315Z,996.32
2016-06-14T06:49:07.357Z,996.38
2016-06-14T06:50:07.400Z,996.38
2016-06-14T06:51:07.426Z,996.39
2016-06-14T06:52:07.442Z,996.45
2016-06-14T06:53:07.460Z,996.47
2016-06-14T06:54:07.477Z,996.42
2016-06-14T06:55:07.494Z,996.39
2016-06-14T06:56:07.506Z,996.38
2016-06-14T06:57:07.514Z,996.39
2016-06-14T06:58:07.506Z,996.36
2016-06-14T06:59:07.530Z,996.38
2016-06-14T07:00:07.523Z,996.44
2016-06-14T07:01:07.700Z,996.45
2016-06-14T07:02:07.534Z,996.41
2016-06-14T07:03:07.539Z,996.41
2016-06-14T07:04:07.543Z,996.4
2016-06-14T07:05:07.564Z,996.45
2016-06-14T07:06:07.708Z,996.46
2016-06-14T07:07:07.556Z,996.48
2016-06-14T07:08:07.560Z,996.47
2016-06-14T07:09:07.610Z,996.49
2016-06-14T07:10:07.566Z,996.46
2016-06-14T07:11:07.570Z,996.41
2016-06-14T07:12:07.574Z,996.4
2016-06-14T07:13:07.577Z,996.4
2016-06-14T07:15:07.584Z,996.37
2016-06-14T07:16:07.587Z,996.34
2016-06-14T07:17:07.590Z,996.36
2016-06-14T07:19:07.846Z,996.51
2016-06-14T07:20:07.600Z,996.54
2016-06-14T07:21:08.648Z,996.61
2016-06-14T07:22:07.606Z,996.69
2016-06-14T07:23:09.218Z,996.66
2016-06-14T07:24:07.612Z,996.6
2016-06-14T07:25:07.615Z,996.57
2016-06-14T07:26:07.618Z,996.53
2016-06-14T07:27:07.621Z,996.55
2016-06-14T07:28:07.639Z,996.49
2016-06-14T07:29:07.767Z,996.54
2016-06-14T07:30:07.630Z,996.54
2016-06-14T07:31:08.539Z,996.41
2016-06-14T07:32:07.651Z,996.42
2016-06-14T07:33:09.061Z,996.51
2016-06-14T07:34:07.643Z,996.51
2016-06-14T07:35:07.645Z,996.45
2016-06-14T07:36:07.649Z,996.5
2016-06-14T07:37:07.652Z,996.49
2016-06-14T07:38:07.654Z,996.56
2016-06-14T07:39:07.657Z,996.62
2016-06-14T07:40:07.661Z,996.56
2016-06-14T07:41:07.664Z,996.5
2016-06-14T07:42:07.667Z,996.5
2016-06-14T07:43:07.670Z,996.48
2016-06-14T07:44:07.673Z,996.44
2016-06-14T07:45:07.676Z,996.39
2016-06-14T07:46:07.695Z,996.46
2016-06-14T07:47:07.682Z,996.54
2016-06-14T07:48:07.685Z,996.42
2016-06-14T07:49:07.689Z,996.46
2016-06-14T07:50:07.692Z,996.53
2016-06-14T07:51:07.694Z,996.62
2016-06-14T07:52:07.698Z,996.77
2016-06-14T07:53:07.701Z,996.81
2016-06-14T07:54:07.704Z,996.64
2016-06-14T07:55:07.707Z,996.58
2016-06-14T07:56:07.710Z,996.61
2016-06-14T07:57:07.728Z,996.61
2016-06-14T07:58:07.717Z,996.6
2016-06-14T07:59:07.734Z,996.68
2016-06-14T08:00:07.722Z,996.61
2016-06-14T08:01:07.726Z,996.56
2016-06-14T08:02:07.743Z,996.56
2016-06-14T08:03:07.732Z,996.58
2016-06-14T08:04:07.735Z,996.68
2016-06-14T08:05:07.738Z,996.63
2016-06-14T08:06:07.741Z,996.58
2016-06-14T08:07:07.743Z,996.69
2016-06-14T08:08:07.762Z,996.65
2016-06-14T08:09:07.765Z,996.68
2016-06-14T08:10:07.768Z,996.56
2016-06-14T08:11:07.771Z,996.54
2016-06-14T08:12:07.775Z,996.62
2016-06-14T08:13:07.777Z,996.62
2016-06-14T08:14:07.780Z,996.62
2016-06-14T08:15:07.783Z,996.71
2016-06-14T08:16:07.897Z,996.6
2016-06-14T08:17:07.805Z,996.53
2016-06-14T08:18:07.792Z,996.59
2016-06-14T08:19:07.796Z,996.77
2016-06-14T08:20:07.799Z,996.8
2016-06-14T08:21:07.802Z,996.82
2016-06-14T08:22:07.805Z,996.66
2016-06-14T08:23:07.808Z,996.77
2016-06-14T08:24:07.811Z,996.94
2016-06-14T08:25:07.815Z,996.86
2016-06-14T08:26:07.927Z,996.68
2016-06-14T08:27:07.930Z,996.77
2016-06-14T08:28:07.823Z,996.85
2016-06-14T08:29:08.233Z,996.87
2016-06-14T08:30:07.846Z,996.94
2016-06-14T08:31:07.863Z,996.98
2016-06-14T08:32:07.852Z,996.81
2016-06-14T08:33:08.745Z,996.71
2016-06-14T08:34:07.857Z,996.7
2016-06-14T08:35:07.861Z,996.7
2016-06-14T08:36:07.864Z,996.94
2016-06-14T08:37:08.070Z,997.03
2016-06-14T08:38:07.870Z,997.02
2016-06-14T08:39:07.873Z,997.03
2016-06-14T08:40:08.563Z,997.24
2016-06-14T08:41:09.191Z,997.23
2016-06-14T08:42:07.898Z,996.99
2016-06-14T08:43:07.901Z,997.02
2016-06-14T08:44:07.903Z,996.79
2016-06-14T08:45:08.595Z,996.77
2016-06-14T08:46:07.972Z,996.79
2016-06-14T08:47:07.929Z,996.89
2016-06-14T08:48:07.932Z,996.87
2016-06-14T08:49:07.935Z,997.03
2016-06-14T08:50:07.938Z,996.85
2016-06-14T08:51:07.942Z,996.84
2016-06-14T08:52:07.960Z,996.8
2016-06-14T08:53:07.963Z,996.71
2016-06-14T08:54:07.966Z,996.72
2016-06-14T08:55:07.970Z,996.84
2016-06-14T08:56:07.972Z,996.92
2016-06-14T08:57:07.976Z,996.83
2016-06-14T08:58:07.994Z,996.92
2016-06-14T08:59:07.996Z,997.03
2016-06-14T09:00:08.016Z,997.18
2016-06-14T09:01:08.253Z,997.18
2016-06-14T09:02:08.022Z,997.13
2016-06-14T09:03:08.025Z,997.07
2016-06-14T09:04:08.028Z,997
2016-06-14T09:05:08.031Z,996.91
2016-06-14T09:06:08.034Z,997.03
2016-06-14T09:07:08.037Z,997.03
2016-06-14T09:08:08.057Z,997.09
2016-06-14T09:09:08.060Z,997.01
2016-06-14T09:10:08.062Z,996.9
2016-06-14T09:11:08.065Z,996.86
2016-06-14T09:12:08.068Z,996.97
2016-06-14T09:13:08.087Z,996.97
2016-06-14T09:14:08.090Z,996.71
2016-06-14T09:15:08.093Z,996.95
2016-06-14T09:16:08.096Z,997.06
2016-06-14T09:17:08.115Z,996.86
2016-06-14T09:18:08.118Z,996.76
2016-06-14T09:19:08.121Z,996.67
2016-06-14T09:20:08.124Z,996.62
2016-06-14T09:21:08.143Z,996.52
2016-06-14T09:22:08.145Z,996.51
2016-06-14T09:23:08.149Z,996.45
2016-06-14T09:24:08.168Z,996.49
2016-06-14T09:25:08.171Z,996.84
2016-06-14T09:26:08.174Z,996.96
2016-06-14T09:27:08.177Z,996.96
2016-06-14T09:28:08.180Z,997
2016-06-14T09:29:08.199Z,997.01
2016-06-14T09:30:08.202Z,996.96
2016-06-14T09:31:08.673Z,996.96
2016-06-14T09:32:08.301Z,996.98
2016-06-14T09:33:08.226Z,996.91
2016-06-14T09:34:08.230Z,997.04
2016-06-14T09:35:08.248Z,997.03
2016-06-14T09:36:08.235Z,997.13
2016-06-14T09:37:08.255Z,997.05
2016-06-14T09:38:08.258Z,996.79
2016-06-14T09:39:08.261Z,996.65
2016-06-14T09:40:08.280Z,996.49
2016-06-14T09:41:08.282Z,996.44
2016-06-14T09:43:08.304Z,996.82
2016-06-14T09:44:09.010Z,996.85
2016-06-14T09:45:08.311Z,996.59
2016-06-14T09:46:08.313Z,996.38
2016-06-14T09:47:08.333Z,996.44
2016-06-14T09:48:08.335Z,996.44
2016-06-14T09:49:08.338Z,996.68
2016-06-14T09:50:08.357Z,996.85
2016-06-14T09:51:08.359Z,996.91
2016-06-14T09:54:08.385Z,996.41
2016-06-14T09:55:08.388Z,996.48
2016-06-14T09:56:08.391Z,996.62
2016-06-14T09:57:08.410Z,996.54
2016-06-14T09:59:08.416Z,996.55
2016-06-14T10:00:08.434Z,996.55
2016-06-14T10:01:08.453Z,996.93
2016-06-14T10:02:08.441Z,996.51
2016-06-14T10:03:09.038Z,996.61
2016-06-14T10:04:08.462Z,996.43
2016-06-14T10:05:08.466Z,996.56
2016-06-14T10:06:08.485Z,996.49
2016-06-14T10:07:08.488Z,996.34
2016-06-14T10:09:10.025Z,996.69
2016-06-14T10:10:08.512Z,996.61
2016-06-14T10:11:08.515Z,996.6
2016-06-14T10:12:08.534Z,996.54
2016-06-14T10:13:08.537Z,996.68
2016-06-14T10:14:08.540Z,996.68
2016-06-14T10:15:08.558Z,996.48
2016-06-14T10:16:08.765Z,996.52
2016-06-14T10:17:08.564Z,996.48
2016-06-14T10:18:08.584Z,996.76
2016-06-14T10:19:08.587Z,996.68
2016-06-14T10:20:08.605Z,996.62
2016-06-14T10:21:08.609Z,996.46
2016-06-14T10:22:08.612Z,996.38
2016-06-14T10:23:08.615Z,996.45
2016-06-14T10:24:08.633Z,996.69
2016-06-14T10:25:08.636Z,996.65
2016-06-14T10:26:08.639Z,996.4
2016-06-14T10:27:08.658Z,996.34
2016-06-14T10:28:08.662Z,996.2
2016-06-14T10:29:08.680Z,996.16
2016-06-14T10:30:08.683Z,996.15
2016-06-14T10:31:09.248Z,996.03
2016-06-14T10:32:08.704Z,996.19
2016-06-14T10:33:08.708Z,996.24
2016-06-14T10:34:08.727Z,996.26
2016-06-14T10:35:08.729Z,996.3
2016-06-14T10:36:08.733Z,996.35
2016-06-14T10:37:08.751Z,996.44
2016-06-14T10:38:08.754Z,996.61
2016-06-14T10:39:08.757Z,996.6
2016-06-14T10:40:08.777Z,996.46
2016-06-14T10:41:08.779Z,996.38
2016-06-14T10:42:08.798Z,996.44
2016-06-14T10:43:08.801Z,996.44
2016-06-14T10:44:08.805Z,996.18
2016-06-14T10:45:08.823Z,996.12
2016-06-14T10:46:08.825Z,996.07
2016-06-14T10:47:08.845Z,996.05
2016-06-14T10:48:08.847Z,996.08
2016-06-14T10:49:08.866Z,996.06
2016-06-14T10:50:08.870Z,996.13
2016-06-14T10:51:08.873Z,996.2
2016-06-14T10:52:08.891Z,996.17
2016-06-14T10:53:08.894Z,996.26
2016-06-14T10:54:08.914Z,996.38
2016-06-14T10:55:08.916Z,996.09
2016-06-14T10:56:08.919Z,995.94
2016-06-14T10:57:08.938Z,995.78
2016-06-14T10:58:08.940Z,995.83
2016-06-14T10:59:08.959Z,995.87
2016-06-14T11:00:08.962Z,995.96
2016-06-14T11:01:08.966Z,995.94
2016-06-14T11:02:08.985Z,995.95
2016-06-14T11:03:08.988Z,996
2016-06-14T11:04:08.991Z,996.02
2016-06-14T11:05:09.009Z,996.02
2016-06-14T11:06:09.012Z,996.12
2016-06-14T11:07:09.015Z,996.13
2016-06-14T11:08:09.034Z,996.14
2016-06-14T11:09:09.037Z,996.11
2016-06-14T11:10:09.040Z,996.03
2016-06-14T11:11:09.246Z,996.14
2016-06-14T11:12:09.062Z,996.2
2016-06-14T11:13:09.065Z,996.24
2016-06-14T11:14:09.068Z,996.21
2016-06-14T11:15:09.072Z,996.17
2016-06-14T11:16:09.090Z,996.25
2016-06-14T11:17:09.358Z,996.29
2016-06-14T11:18:10.487Z,996.34
2016-06-14T11:19:09.099Z,996.34
2016-06-14T11:20:09.102Z,996.31
2016-06-14T11:21:09.106Z,996.3
2016-06-14T11:22:09.124Z,996.34
2016-06-14T11:23:09.128Z,996.34
2016-06-14T11:24:09.131Z,996.37
2016-06-14T11:25:09.133Z,996.41
2016-06-14T11:26:09.137Z,996.47
2016-06-14T11:27:09.140Z,996.53
2016-06-14T11:28:09.142Z,996.53
2016-06-14T11:29:09.161Z,996.52
2016-06-14T11:30:09.180Z,996.6
2016-06-14T11:31:09.152Z,996.72
2016-06-14T11:32:09.155Z,996.79
2016-06-14T11:33:09.158Z,996.83
2016-06-14T11:34:09.161Z,996.75
2016-06-14T11:35:09.164Z,996.81
2016-06-14T11:36:09.167Z,996.95
2016-06-14T11:37:09.171Z,997.13
2016-06-14T11:38:09.174Z,997.16
2016-06-14T11:39:09.177Z,997.04
2016-06-14T11:40:09.180Z,997.07
2016-06-14T11:41:09.182Z,997.01
2016-06-14T11:42:09.186Z,997
2016-06-14T11:43:09.189Z,996.95
2016-06-14T11:44:09.192Z,996.95
2016-06-14T11:45:09.195Z,996.81
2016-06-14T11:46:09.198Z,996.82
2016-06-14T11:47:09.201Z,996.97
2016-06-14T11:48:10.594Z,996.95
2016-06-14T11:49:09.207Z,996.86
2016-06-14T11:50:09.211Z,996.9
2016-06-14T11:51:09.214Z,996.72
2016-06-14T11:52:09.232Z,996.67
2016-06-14T11:53:09.235Z,996.62
2016-06-14T11:54:09.237Z,996.7
2016-06-14T11:55:09.241Z,996.71
2016-06-14T11:56:09.244Z,996.58
2016-06-14T11:57:09.246Z,996.42
2016-06-14T11:58:09.266Z,996.5
2016-06-14T11:59:09.269Z,996.57
2016-06-14T12:00:09.272Z,996.64
2016-06-14T12:01:09.275Z,996.72
2016-06-14T12:02:09.278Z,996.78
2016-06-14T12:03:09.282Z,996.62
2016-06-14T12:04:09.285Z,996.45
2016-06-14T12:05:09.304Z,996.36
2016-06-14T12:06:09.306Z,996.34
2016-06-14T12:07:09.309Z,996.35
2016-06-14T12:08:09.313Z,996.51
2016-06-14T12:09:09.331Z,996.7
2016-06-14T12:10:09.334Z,996.74
2016-06-14T12:11:09.337Z,996.81
2016-06-14T12:12:09.340Z,996.82
2016-06-14T12:13:09.359Z,996.67
2016-06-14T12:14:09.362Z,996.5
2016-06-14T12:15:09.366Z,996.3
2016-06-14T12:16:09.368Z,996.28
2016-06-14T12:17:09.388Z,996.27
2016-06-14T12:18:09.390Z,996.2
2016-06-14T12:19:09.690Z,996.12
2016-06-14T12:20:09.396Z,996.19
2016-06-14T12:21:09.821Z,996
2016-06-14T12:22:09.965Z,995.94
2016-06-14T12:23:09.421Z,995.97
2016-06-14T12:24:09.423Z,996.04
2016-06-14T12:25:09.443Z,996.15
2016-06-14T12:26:09.447Z,996.13
2016-06-14T12:27:09.449Z,996.13
2016-06-14T12:28:09.452Z,996.06
2016-06-14T12:29:09.767Z,995.99
2016-06-14T12:30:09.473Z,995.94
2016-06-14T12:31:10.086Z,995.94
2016-06-14T12:32:09.886Z,996.03
2016-06-14T12:33:09.499Z,996.18
2016-06-14T12:34:09.502Z,996.17
2016-06-14T12:36:09.524Z,996.03
2016-06-14T12:37:09.527Z,996.07
2016-06-14T12:38:09.531Z,996.23
2016-06-14T12:39:09.533Z,996.27
2016-06-14T12:40:09.551Z,996.32
2016-06-14T12:41:09.555Z,996.36